Waterport, New York
Current Conditions -  °F | °C
As of 5:54 PM on Friday 19 Dec 2014 (Local Time) from KROC Reporting Station
Overcast Overcast  
Wind Chill: 22°   Ceiling: 1900
Heat Index: 29°   Visibility: 10mi
Dew Point: 22°   Wind: 7mph
Humidity: 75%   Direction: 270°W
Pressure: 30.21"   Gusts: NA
Location:  43.32°N, 78.25°W
Report Text: KROC 192254Z 27006KT 10SM OVC019 M02/M06 A3021 RMK AO2 SLP242 T10171056
Loading
Personal Weather Stations






























Interactive Weather Map New forecast layout! Learn more

10-Day Weather Forecast

Advertisements
Track Severe Weather on mobile